Crown Topaz — 3FAS9 — position and weather

sailwx.info

Track history (hours):
 
Tides and Currents Weather Stations Pressure Air Temp Water Temp Dewpoint Dewpoint Depression Visibility Wind Speed Wind Dir Waves Ship Positions

Crown Topaz

Last reported at 2014-Sep-07 01:17 UTC. Time now 2014-Sep-22 20:20 UTC.
Position N 17°05' W 063°26'.
Warning: this ship's position is 15 days out of date.

Length 152 m; draft 6.5 m.

Type: Cargo ship. MMSI: 357144000.

Date/timePositionNaut miles runAvg speedWind from/ knotsBaromVisibWave heightAir tempDewpointWater temp
2014-Sep-07 01:17N 17°05' W 063°26'4817.4
2014-Sep-06 22:32N 17°49' W 063°06'12 5.4
2014-Sep-06 20:16N 18°01' W 063°03'1 0.1
2014-Sep-06 11:17N 18°00' W 063°03'2 1.7
2014-Sep-06 10:16N 18°00' W 063°05'0 0.0
2014-Sep-06 08:31N 18°01' W 063°05'0 0.0
2014-Sep-06 07:31N 18°00' W 063°05'0 0.0
2014-Sep-06 06:29N 18°00' W 063°05'0 0.0
2014-Sep-06 05:31N 18°00' W 063°05'0 0.0
2014-Sep-06 04:19N 18°01' W 063°05'0 0.0
2014-Sep-06 03:28N 18°00' W 063°05'0 0.0
2014-Sep-06 02:25N 18°00' W 063°05'6 7.2
2014-Sep-06 01:33N 17°54' W 063°05'9118.3
2014-Sep-05 20:34N 16°35' W 062°18'5011.9
2014-Sep-05 16:19N 16°12' W 061°32'  
2014-Aug-31 08:09N 36°17' W 030°06'1718.5
2014-Aug-31 07:14N 36°27' W 029°49'1418.7
2014-Aug-31 06:30N 36°35' W 029°36'1818.8
2014-Aug-31 05:33N 36°46' W 029°18'1918.9
2014-Aug-31 04:33N 36°57' W 028°59'1918.9
2014-Aug-31 03:33N 37°08' W 028°40'1919.1
2014-Aug-31 02:33N 37°19' W 028°20'1918.9
2014-Aug-31 01:33N 37°30' W 028°01'1918.7
2014-Aug-31 00:33N 37°41' W 027°42'1918.6
2014-Aug-30 23:33N 37°52' W 027°23'1818.3
2014-Aug-30 22:33N 38°03' W 027°04'1818.4
2014-Aug-30 21:33N 38°14' W 026°45'1818.4
2014-Aug-30 20:33N 38°25' W 026°26'1818.1
2014-Aug-30 19:34N 38°36' W 026°08'1818.0
2014-Aug-30 18:33N 38°44' W 025°48'1918.6
2014-Aug-30 17:33N 38°52' W 025°26'1818.4
2014-Aug-30 16:33N 38°60' W 025°04'1818.5
2014-Aug-30 15:33N 39°08' W 024°43'2019.2
2014-Aug-30 14:31N 39°18' W 024°21'1819.0
2014-Aug-30 13:33N 39°27' W 024°00'2218.8
2014-Aug-30 12:25N 39°38' W 023°36'2418.4
2014-Aug-30 11:05N 39°50' W 023°09'  
Track history (hours):
 
Tides and Currents Weather Stations Pressure Air Temp Water Temp Dewpoint Dewpoint Depression Visibility Wind Speed Wind Dir Waves Ship Positions

Crown Topaz

Last reported at 2014-Sep-07 01:17 UTC. Time now 2014-Sep-22 20:20 UTC.
Position N 17°05' W 063°26'.
Warning: this ship's position is 15 days out of date.

Length 152 m; draft 6.5 m.

Type: Cargo ship. MMSI: 357144000.

Date/timePositionNaut miles runAvg speedWind from/ knotsBaromVisibWave heightAir tempDewpointWater temp
2014-Sep-07 01:17N 17°05' W 063°26'4817.4
2014-Sep-06 22:32N 17°49' W 063°06'12 5.4
2014-Sep-06 20:16N 18°01' W 063°03'1 0.1
2014-Sep-06 11:17N 18°00' W 063°03'2 1.7
2014-Sep-06 10:16N 18°00' W 063°05'0 0.0
2014-Sep-06 08:31N 18°01' W 063°05'0 0.0
2014-Sep-06 07:31N 18°00' W 063°05'0 0.0
2014-Sep-06 06:29N 18°00' W 063°05'0 0.0
2014-Sep-06 05:31N 18°00' W 063°05'0 0.0
2014-Sep-06 04:19N 18°01' W 063°05'0 0.0
2014-Sep-06 03:28N 18°00' W 063°05'0 0.0
2014-Sep-06 02:25N 18°00' W 063°05'6 7.2
2014-Sep-06 01:33N 17°54' W 063°05'9118.3
2014-Sep-05 20:34N 16°35' W 062°18'5011.9
2014-Sep-05 16:19N 16°12' W 061°32'  
2014-Aug-31 08:09N 36°17' W 030°06'1718.5
2014-Aug-31 07:14N 36°27' W 029°49'1418.7
2014-Aug-31 06:30N 36°35' W 029°36'1818.8
2014-Aug-31 05:33N 36°46' W 029°18'1918.9
2014-Aug-31 04:33N 36°57' W 028°59'1918.9
2014-Aug-31 03:33N 37°08' W 028°40'1919.1
2014-Aug-31 02:33N 37°19' W 028°20'1918.9
2014-Aug-31 01:33N 37°30' W 028°01'1918.7
2014-Aug-31 00:33N 37°41' W 027°42'1918.6
2014-Aug-30 23:33N 37°52' W 027°23'1818.3
2014-Aug-30 22:33N 38°03' W 027°04'1818.4
2014-Aug-30 21:33N 38°14' W 026°45'1818.4
2014-Aug-30 20:33N 38°25' W 026°26'1818.1
2014-Aug-30 19:34N 38°36' W 026°08'1818.0
2014-Aug-30 18:33N 38°44' W 025°48'1918.6
2014-Aug-30 17:33N 38°52' W 025°26'1818.4
2014-Aug-30 16:33N 38°60' W 025°04'1818.5
2014-Aug-30 15:33N 39°08' W 024°43'2019.2
2014-Aug-30 14:31N 39°18' W 024°21'1819.0
2014-Aug-30 13:33N 39°27' W 024°00'2218.8
2014-Aug-30 12:25N 39°38' W 023°36'2418.4
2014-Aug-30 11:05N 39°50' W 023°09'  

Dump ship's entire track history